Time;durP1;ratioP1;P1;durP2;ratioP2;P2;SDS_P1;SDS_P2;PMS_P1;PMS_P2;Temp;Humidity;BMP_temperature;BMP_pressure;BME280_temperature;BME280_humidity;BME280_pressure;Samples;Min_cycle;Max_cycle;Signal;HPM_P1;HPM_P2
2022/03/26 00:02:15;;;;;;;44.50;26.20;;;;;;;;;;5014498;28;20438;-50
2022/03/26 00:04:41;;;;;;;48.17;29.77;;;;;;;;;;5014514;28;20461;-50
2022/03/26 00:07:07;;;;;;;52.60;28.47;;;;;;;;;;5014370;28;20399;-50
2022/03/26 00:09:33;;;;;;;51.97;29.23;;;;;;;;;;5014443;28;20407;-50
2022/03/26 00:11:59;;;;;;;54.73;29.30;;;;;;;;;;5014536;28;20411;-50
2022/03/26 00:14:25;;;;;;;49.60;29.20;;;;;;;;;;4996892;28;20421;-52
2022/03/26 00:16:51;;;;;;;53.57;30.60;;;;;;;;;;5014842;28;20409;-52
2022/03/26 00:19:16;;;;;;;48.30;29.17;;;;;;;;;;5014263;28;20903;-51
2022/03/26 00:21:43;;;;;;;50.20;28.10;;;;;;;;;;5014178;28;20451;-50
2022/03/26 00:24:09;;;;;;;51.70;29.97;;;;;;;;;;5014231;28;20474;-52
2022/03/26 00:26:35;;;;;;;48.87;28.70;;;;;;;;;;4996696;28;20419;-47
2022/03/26 00:29:01;;;;;;;57.17;30.37;;;;;;;;;;5014103;28;20433;-49
2022/03/26 00:31:27;;;;;;;52.00;27.60;;;;;;;;;;5013882;28;20438;-50
2022/03/26 00:33:54;;;;;;;52.80;28.07;;;;;;;;;;5014120;28;21100;-52
2022/03/26 00:36:20;;;;;;;52.90;27.60;;;;;;;;;;5014175;28;20416;-51
2022/03/26 00:38:46;;;;;;;49.80;27.03;;;;;;;;;;5013980;28;20416;-52
2022/03/26 00:41:12;;;;;;;49.17;29.23;;;;;;;;;;5013658;28;20404;-51
2022/03/26 00:43:38;;;;;;;54.43;29.17;;;;;;;;;;5013807;28;20452;-52
2022/03/26 00:46:04;;;;;;;46.30;28.00;;;;;;;;;;5013802;28;20474;-50
2022/03/26 00:48:30;;;;;;;48.53;28.90;;;;;;;;;;5013662;28;20895;-52
2022/03/26 00:50:56;;;;;;;54.83;26.67;;;;;;;;;;5008466;28;20443;-48
2022/03/26 00:53:22;;;;;;;55.00;29.00;;;;;;;;;;5004772;28;20470;-50
2022/03/26 00:55:48;;;;;;;52.87;28.33;;;;;;;;;;5013748;28;20412;-52
2022/03/26 00:58:14;;;;;;;52.23;28.67;;;;;;;;;;5007455;28;20426;-47
2022/03/26 01:00:42;;;;;;;52.10;27.90;;;;;;;;;;5017852;28;20429;-46
2022/03/26 01:03:09;;;;;;;48.43;27.83;;;;;;;;;;5013093;28;20448;-46
2022/03/26 01:05:35;;;;;;;48.70;27.80;;;;;;;;;;5013348;28;20549;-47
2022/03/26 01:08:01;;;;;;;46.90;27.00;;;;;;;;;;5013370;28;20769;-47
2022/03/26 01:10:28;;;;;;;49.73;26.20;;;;;;;;;;5013063;28;20412;-51
2022/03/26 01:12:54;;;;;;;48.60;27.60;;;;;;;;;;5012999;28;20425;-49
2022/03/26 01:15:20;;;;;;;51.70;28.63;;;;;;;;;;5013304;28;20411;-47
2022/03/26 01:17:46;;;;;;;52.65;26.83;;;;;;;;;;5012412;28;20506;-47
2022/03/26 01:20:13;;;;;;;42.30;26.87;;;;;;;;;;5013044;28;20277;-47
2022/03/26 01:22:39;;;;;;;51.70;28.40;;;;;;;;;;5012711;28;20831;-47
2022/03/26 01:25:05;;;;;;;61.07;35.87;;;;;;;;;;5012096;28;20461;-47
2022/03/26 01:27:34;;;;;;;54.57;29.90;;;;;;;;;;5011474;28;20473;-46
2022/03/26 01:30:00;;;;;;;49.83;27.63;;;;;;;;;;5001107;28;20468;-46
2022/03/26 01:32:26;;;;;;;45.87;26.43;;;;;;;;;;5015556;28;20436;-47
2022/03/26 01:34:52;;;;;;;51.03;26.77;;;;;;;;;;5011373;28;20961;-47
2022/03/26 01:37:18;;;;;;;51.87;29.27;;;;;;;;;;5013309;28;20892;-46
2022/03/26 01:39:45;;;;;;;49.30;29.00;;;;;;;;;;5011917;28;20417;-46
2022/03/26 01:42:11;;;;;;;49.80;27.00;;;;;;;;;;5011835;28;20935;-46
2022/03/26 01:44:37;;;;;;;51.37;28.90;;;;;;;;;;5012423;28;20271;-46
2022/03/26 01:47:04;;;;;;;53.80;29.87;;;;;;;;;;5012211;28;20426;-48
2022/03/26 01:49:33;;;;;;;52.80;29.33;;;;;;;;;;5012024;28;20419;-50
2022/03/26 01:52:00;;;;;;;52.53;27.50;;;;;;;;;;5012212;28;20951;-47
2022/03/26 01:54:27;;;;;;;55.90;28.47;;;;;;;;;;5012467;28;20455;-46
2022/03/26 01:56:53;;;;;;;56.03;28.57;;;;;;;;;;5012264;28;20417;-51
2022/03/26 01:59:19;;;;;;;49.93;29.90;;;;;;;;;;5012048;28;20438;-46
2022/03/26 02:01:45;;;;;;;46.13;26.73;;;;;;;;;;5011402;28;20528;-46
2022/03/26 02:04:12;;;;;;;46.30;27.00;;;;;;;;;;5011330;28;20462;-48
2022/03/26 02:06:39;;;;;;;64.03;30.00;;;;;;;;;;5011541;28;20428;-48
2022/03/26 02:09:06;;;;;;;53.47;28.90;;;;;;;;;;5012001;28;20436;-46
2022/03/26 02:11:32;;;;;;;53.17;29.30;;;;;;;;;;5011703;28;20428;-46
2022/03/26 02:13:59;;;;;;;60.37;30.33;;;;;;;;;;5011901;28;20425;-46
2022/03/26 02:16:25;;;;;;;50.47;30.17;;;;;;;;;;5012014;28;20429;-46
2022/03/26 02:18:51;;;;;;;50.80;28.30;;;;;;;;;;5012328;28;20404;-46
2022/03/26 02:21:18;;;;;;;55.70;29.40;;;;;;;;;;5011550;28;20418;-46
2022/03/26 02:23:44;;;;;;;52.63;29.57;;;;;;;;;;5011797;28;20463;-46
2022/03/26 02:26:13;;;;;;;47.43;29.07;;;;;;;;;;5011830;28;20477;-49
2022/03/26 02:28:39;;;;;;;56.67;29.23;;;;;;;;;;5011516;28;20489;-47
2022/03/26 02:31:05;;;;;;;57.57;29.80;;;;;;;;;;5010967;28;20933;-50
2022/03/26 02:33:31;;;;;;;52.97;30.67;;;;;;;;;;5011209;28;20970;-51
2022/03/26 02:35:57;;;;;;;58.93;29.67;;;;;;;;;;5011073;28;20164;-48
2022/03/26 02:38:24;;;;;;;47.70;28.90;;;;;;;;;;5011161;28;20438;-46
2022/03/26 02:40:51;;;;;;;57.50;31.55;;;;;;;;;;5011054;28;20770;-46
2022/03/26 02:43:17;;;;;;;51.28;28.60;;;;;;;;;;5011011;28;20192;-46
2022/03/26 02:45:44;;;;;;;53.17;31.10;;;;;;;;;;5011711;28;20204;-46
2022/03/26 02:48:12;;;;;;;61.20;32.67;;;;;;;;;;5010819;28;20422;-47
2022/03/26 02:50:39;;;;;;;55.30;30.20;;;;;;;;;;5011211;28;20441;-48
2022/03/26 02:53:05;;;;;;;56.35;31.77;;;;;;;;;;5011230;28;20199;-47
2022/03/26 02:55:31;;;;;;;58.47;30.17;;;;;;;;;;5001156;28;20186;-46
2022/03/26 03:01:01;;;;;;;55.17;30.60;;;;;;;;;;4991767;28;20464;-49
2022/03/26 03:03:27;;;;;;;51.20;28.80;;;;;;;;;;4998388;28;20549;-50
2022/03/26 03:05:53;;;;;;;52.30;29.70;;;;;;;;;;5011548;28;20423;-46
2022/03/26 03:08:19;;;;;;;51.20;29.60;;;;;;;;;;5011338;28;20420;-46
2022/03/26 03:10:45;;;;;;;55.77;30.40;;;;;;;;;;5011282;28;20426;-46
2022/03/26 03:13:12;;;;;;;66.47;30.42;;;;;;;;;;5011339;28;20423;-46
2022/03/26 03:15:38;;;;;;;47.15;28.23;;;;;;;;;;5011421;28;20191;-46
2022/03/26 03:18:04;;;;;;;56.05;28.70;;;;;;;;;;5011458;28;20177;-47
2022/03/26 03:20:30;;;;;;;55.08;29.08;;;;;;;;;;5011233;28;20263;-47
2022/03/26 03:22:59;;;;;;;52.77;27.90;;;;;;;;;;5011304;28;20699;-48
2022/03/26 03:25:26;;;;;;;53.80;28.83;;;;;;;;;;5006117;28;20480;-47
2022/03/26 03:27:52;;;;;;;56.78;28.20;;;;;;;;;;5011414;28;20298;-47
2022/03/26 03:30:18;;;;;;;51.13;28.20;;;;;;;;;;5011077;28;20173;-46
2022/03/26 03:32:45;;;;;;;59.23;29.30;;;;;;;;;;5011347;28;20212;-46
2022/03/26 03:35:11;;;;;;;54.25;28.30;;;;;;;;;;5011080;28;20501;-46
2022/03/26 03:37:40;;;;;;;56.60;29.27;;;;;;;;;;5011120;28;20212;-45
2022/03/26 03:40:06;;;;;;;53.20;29.27;;;;;;;;;;5003589;28;20411;-49
2022/03/26 03:42:32;;;;;;;53.58;29.38;;;;;;;;;;5014568;28;20192;-47
2022/03/26 03:44:58;;;;;;;58.22;30.40;;;;;;;;;;5014728;28;20208;-46
2022/03/26 03:47:24;;;;;;;61.43;28.30;;;;;;;;;;5014761;28;20184;-46
2022/03/26 03:49:51;;;;;;;59.80;29.57;;;;;;;;;;5014144;28;20415;-47
2022/03/26 03:52:17;;;;;;;48.78;28.13;;;;;;;;;;5014345;28;20530;-47
2022/03/26 03:54:43;;;;;;;50.83;27.92;;;;;;;;;;5014713;28;20719;-46
2022/03/26 03:57:09;;;;;;;58.43;28.97;;;;;;;;;;5014392;28;20176;-49
2022/03/26 03:59:40;;;;;;;64.35;29.40;;;;;;;;;;5014168;28;20419;-46
2022/03/26 04:02:08;;;;;;;54.28;27.80;;;;;;;;;;5014269;28;20301;-46
2022/03/26 04:04:34;;;;;;;53.08;28.08;;;;;;;;;;5014341;28;20206;-46
2022/03/26 04:06:59;;;;;;;54.90;31.17;;;;;;;;;;5014362;28;20548;-48
2022/03/26 04:09:26;;;;;;;54.70;29.47;;;;;;;;;;5013812;28;20477;-49
2022/03/26 04:11:51;;;;;;;59.13;28.98;;;;;;;;;;5014054;28;20514;-50
2022/03/26 04:14:17;;;;;;;52.30;29.23;;;;;;;;;;5014154;28;20611;-46
2022/03/26 04:16:43;;;;;;;59.23;30.67;;;;;;;;;;5014162;28;20927;-46
2022/03/26 04:19:10;;;;;;;53.00;29.17;;;;;;;;;;5014231;28;20411;-46
2022/03/26 04:21:35;;;;;;;56.35;29.10;;;;;;;;;;5013916;28;20504;-46
2022/03/26 04:24:02;;;;;;;63.37;32.60;;;;;;;;;;5013755;28;20743;-46
2022/03/26 04:26:28;;;;;;;63.72;29.27;;;;;;;;;;5013955;28;20415;-45
2022/03/26 04:28:54;;;;;;;61.25;30.92;;;;;;;;;;5006255;28;20176;-46
2022/03/26 04:31:20;;;;;;;68.30;30.88;;;;;;;;;;5000084;28;20190;-46
2022/03/26 04:33:46;;;;;;;54.53;29.93;;;;;;;;;;5013067;28;20164;-45
2022/03/26 04:36:12;;;;;;;58.87;30.07;;;;;;;;;;5012634;28;20953;-46
2022/03/26 04:38:38;;;;;;;57.10;28.48;;;;;;;;;;5013383;28;20411;-50
2022/03/26 04:41:04;;;;;;;51.38;28.58;;;;;;;;;;5013372;28;20168;-46
2022/03/26 04:43:30;;;;;;;54.53;28.87;;;;;;;;;;5013060;28;20192;-46
2022/03/26 04:45:56;;;;;;;64.80;31.48;;;;;;;;;;5012776;28;20815;-46
2022/03/26 04:48:22;;;;;;;63.70;30.30;;;;;;;;;;5013579;28;20183;-48
2022/03/26 04:50:48;;;;;;;69.73;32.20;;;;;;;;;;4999682;28;20469;-49
2022/03/26 04:53:14;;;;;;;56.67;30.53;;;;;;;;;;5012586;28;20812;-46
2022/03/26 04:55:40;;;;;;;53.20;29.30;;;;;;;;;;5013317;28;20416;-46
2022/03/26 04:58:08;;;;;;;60.17;28.83;;;;;;;;;;5013368;28;20425;-45
2022/03/26 05:00:34;;;;;;;53.55;32.08;;;;;;;;;;5013330;28;20416;-46
2022/03/26 05:03:00;;;;;;;58.20;31.03;;;;;;;;;;5013274;28;20222;-50
2022/03/26 05:05:26;;;;;;;61.47;30.67;;;;;;;;;;5012921;28;20455;-48
2022/03/26 05:07:55;;;;;;;61.77;30.00;;;;;;;;;;5013511;28;20395;-49
2022/03/26 05:10:27;;;;;;;58.28;29.75;;;;;;;;;;5013030;28;20415;-45
2022/03/26 05:12:54;;;;;;;55.78;29.95;;;;;;;;;;5012827;28;20206;-46
2022/03/26 05:15:21;;;;;;;55.65;31.45;;;;;;;;;;5013054;28;20235;-50
2022/03/26 05:17:47;;;;;;;56.50;29.75;;;;;;;;;;5013189;28;20573;-46
2022/03/26 05:20:13;;;;;;;53.78;28.30;;;;;;;;;;5012928;28;20180;-46
2022/03/26 05:22:40;;;;;;;65.70;31.33;;;;;;;;;;5012496;28;20527;-48
2022/03/26 05:25:06;;;;;;;57.88;28.13;;;;;;;;;;5012698;28;20197;-46
2022/03/26 05:27:32;;;;;;;60.78;30.60;;;;;;;;;;5001181;28;20180;-46
2022/03/26 05:29:59;;;;;;;57.50;28.77;;;;;;;;;;4993341;28;20250;-46
2022/03/26 05:32:25;;;;;;;62.63;31.50;;;;;;;;;;5008194;28;20284;-46
2022/03/26 05:34:51;;;;;;;55.65;30.15;;;;;;;;;;5012568;28;20176;-46
2022/03/26 05:37:18;;;;;;;54.53;29.73;;;;;;;;;;5012692;28;20253;-46
2022/03/26 05:39:44;;;;;;;57.58;30.58;;;;;;;;;;5012345;28;20453;-47
2022/03/26 05:42:10;;;;;;;60.00;27.33;;;;;;;;;;5012478;28;20227;-48
2022/03/26 05:44:36;;;;;;;62.17;29.00;;;;;;;;;;5012231;28;20443;-50
2022/03/26 05:47:03;;;;;;;54.85;29.15;;;;;;;;;;5012547;28;20411;-50
2022/03/26 05:49:29;;;;;;;56.10;29.58;;;;;;;;;;5012322;28;20196;-47
2022/03/26 05:51:55;;;;;;;61.30;29.02;;;;;;;;;;5012057;28;20227;-46
2022/03/26 05:54:21;;;;;;;67.05;29.10;;;;;;;;;;5012410;28;20176;-46
2022/03/26 05:56:54;;;;;;;49.42;27.92;;;;;;;;;;5012574;28;20266;-47
2022/03/26 05:59:21;;;;;;;56.47;29.73;;;;;;;;;;5012212;28;20179;-46
2022/03/26 06:01:47;;;;;;;51.78;30.40;;;;;;;;;;5011880;28;20249;-46
2022/03/26 06:04:13;;;;;;;53.90;28.65;;;;;;;;;;5010933;28;20266;-50
2022/03/26 06:06:39;;;;;;;52.03;29.07;;;;;;;;;;5011622;28;20789;-46
2022/03/26 06:09:05;;;;;;;70.20;30.00;;;;;;;;;;5011921;28;20423;-46
2022/03/26 06:11:31;;;;;;;62.27;29.43;;;;;;;;;;5011289;28;20423;-46
2022/03/26 06:13:57;;;;;;;52.07;28.87;;;;;;;;;;5011397;28;20423;-46
2022/03/26 06:16:23;;;;;;;54.55;29.40;;;;;;;;;;5011419;28;20420;-46
2022/03/26 06:18:49;;;;;;;53.07;28.03;;;;;;;;;;5012203;28;20164;-46
2022/03/26 06:21:16;;;;;;;55.17;30.43;;;;;;;;;;5011829;28;20907;-45
2022/03/26 06:23:42;;;;;;;59.17;30.85;;;;;;;;;;5011915;28;20420;-45
2022/03/26 06:26:08;;;;;;;57.90;27.23;;;;;;;;;;5011510;28;20177;-46
2022/03/26 06:28:35;;;;;;;49.95;28.38;;;;;;;;;;5012039;28;20256;-46
2022/03/26 06:31:01;;;;;;;52.90;28.50;;;;;;;;;;5011866;28;20175;-46
2022/03/26 06:33:27;;;;;;;55.40;28.00;;;;;;;;;;5011636;28;20188;-46
2022/03/26 06:35:53;;;;;;;59.33;33.75;;;;;;;;;;5010882;28;20441;-50
2022/03/26 06:38:19;;;;;;;61.63;31.10;;;;;;;;;;5012071;28;20176;-50
2022/03/26 06:40:45;;;;;;;57.63;30.70;;;;;;;;;;5011608;28;20407;-45
2022/03/26 06:43:11;;;;;;;54.70;28.87;;;;;;;;;;5011764;28;20431;-46
2022/03/26 06:45:37;;;;;;;53.87;28.60;;;;;;;;;;5011251;28;20981;-46
2022/03/26 06:48:04;;;;;;;53.10;28.57;;;;;;;;;;5011726;28;20421;-46
2022/03/26 06:50:30;;;;;;;48.20;26.77;;;;;;;;;;5011695;28;20767;-47
2022/03/26 06:52:56;;;;;;;51.80;28.80;;;;;;;;;;5011788;28;20427;-46
2022/03/26 06:55:23;;;;;;;51.17;29.00;;;;;;;;;;5011645;28;20529;-47
2022/03/26 06:57:49;;;;;;;61.47;29.40;;;;;;;;;;5011773;28;20419;-50
2022/03/26 07:00:16;;;;;;;48.67;28.90;;;;;;;;;;5011170;28;20953;-49
2022/03/26 07:02:42;;;;;;;47.47;28.37;;;;;;;;;;5011102;28;20869;-48
2022/03/26 07:05:08;;;;;;;49.33;29.13;;;;;;;;;;5011607;28;20465;-46
2022/03/26 07:07:34;;;;;;;46.40;28.57;;;;;;;;;;5011881;28;20930;-46
2022/03/26 07:10:00;;;;;;;51.73;29.83;;;;;;;;;;5011544;28;20430;-47
2022/03/26 07:12:29;;;;;;;48.43;29.50;;;;;;;;;;5011481;28;20422;-48
2022/03/26 07:14:55;;;;;;;54.53;31.63;;;;;;;;;;5011423;28;20498;-47
2022/03/26 07:17:21;;;;;;;51.80;30.93;;;;;;;;;;5014998;28;20416;-46
2022/03/26 07:19:47;;;;;;;51.90;29.67;;;;;;;;;;5015608;28;20491;-47
2022/03/26 07:22:13;;;;;;;55.07;31.10;;;;;;;;;;5014990;28;20411;-47
2022/03/26 07:24:39;;;;;;;58.30;31.23;;;;;;;;;;5014660;28;21270;-51
2022/03/26 07:27:05;;;;;;;48.90;31.00;;;;;;;;;;5014973;28;20555;-53
2022/03/26 07:29:33;;;;;;;56.20;31.90;;;;;;;;;;5014551;28;20421;-53
2022/03/26 07:31:59;;;;;;;49.53;30.60;;;;;;;;;;5014780;28;20438;-50
2022/03/26 07:34:26;;;;;;;50.00;30.20;;;;;;;;;;5015095;28;20426;-53
2022/03/26 07:36:52;;;;;;;50.57;30.73;;;;;;;;;;5015101;28;20415;-53
2022/03/26 07:39:18;;;;;;;43.10;30.37;;;;;;;;;;5014817;28;20419;-53
2022/03/26 07:41:44;;;;;;;48.67;30.77;;;;;;;;;;5014830;28;20435;-52
2022/03/26 07:44:10;;;;;;;45.63;29.80;;;;;;;;;;5015012;28;20452;-51
2022/03/26 07:46:36;;;;;;;52.30;31.03;;;;;;;;;;5015091;28;20929;-51
2022/03/26 07:49:02;;;;;;;46.20;30.37;;;;;;;;;;5014926;28;20411;-53
2022/03/26 07:51:28;;;;;;;43.30;30.60;;;;;;;;;;5014520;28;20426;-51
2022/03/26 07:53:54;;;;;;;45.77;30.90;;;;;;;;;;5014367;28;20485;-53
2022/03/26 07:56:21;;;;;;;46.87;31.67;;;;;;;;;;5014647;28;20419;-53
2022/03/26 07:58:49;;;;;;;50.37;32.50;;;;;;;;;;5014558;28;20415;-52
2022/03/26 08:01:15;;;;;;;45.63;30.93;;;;;;;;;;5014307;28;20415;-53
2022/03/26 08:03:41;;;;;;;47.47;31.20;;;;;;;;;;5012687;28;20450;-51
2022/03/26 08:06:07;;;;;;;52.40;33.03;;;;;;;;;;5014244;28;20962;-53
2022/03/26 08:08:33;;;;;;;48.47;32.00;;;;;;;;;;5014452;28;20419;-53
2022/03/26 08:11:00;;;;;;;46.77;31.90;;;;;;;;;;5014031;28;20939;-51
2022/03/26 08:13:26;;;;;;;51.50;32.27;;;;;;;;;;5013990;28;20438;-53
2022/03/26 08:15:52;;;;;;;43.80;31.90;;;;;;;;;;5014314;28;20417;-53
2022/03/26 08:18:18;;;;;;;51.57;32.80;;;;;;;;;;5014246;28;20411;-53
2022/03/26 08:20:44;;;;;;;49.33;33.17;;;;;;;;;;5014209;28;20408;-53
2022/03/26 08:23:10;;;;;;;44.17;32.17;;;;;;;;;;5013656;28;20501;-53
2022/03/26 08:28:21;;;;;;;47.93;33.03;;;;;;;;;;5014077;28;20474;-54
2022/03/26 08:30:47;;;;;;;47.17;33.60;;;;;;;;;;5013739;28;20414;-51
2022/03/26 08:33:13;;;;;;;44.70;32.70;;;;;;;;;;5013774;28;20438;-51
2022/03/26 08:35:40;;;;;;;49.13;32.30;;;;;;;;;;5013484;28;20437;-53
2022/03/26 08:38:06;;;;;;;40.77;31.73;;;;;;;;;;5013886;28;20942;-52
2022/03/26 08:40:32;;;;;;;42.33;30.60;;;;;;;;;;5013480;28;20403;-52
2022/03/26 08:42:59;;;;;;;44.73;32.43;;;;;;;;;;5013775;28;20946;-53
2022/03/26 08:45:26;;;;;;;45.77;33.50;;;;;;;;;;5013637;28;20493;-52
2022/03/26 08:47:51;;;;;;;41.90;31.80;;;;;;;;;;5013712;28;20446;-51
2022/03/26 08:50:17;;;;;;;40.90;30.13;;;;;;;;;;5013566;28;20415;-53
2022/03/26 08:52:45;;;;;;;44.40;32.30;;;;;;;;;;5013366;28;20574;-54
2022/03/26 08:55:11;;;;;;;42.67;31.40;;;;;;;;;;5013447;28;20437;-53
2022/03/26 08:57:37;;;;;;;46.70;32.57;;;;;;;;;;5013417;28;20415;-53
2022/03/26 09:00:04;;;;;;;42.40;30.77;;;;;;;;;;5013160;28;20422;-51
2022/03/26 09:02:29;;;;;;;42.60;30.90;;;;;;;;;;5012645;28;20863;-52
2022/03/26 09:04:56;;;;;;;39.37;31.20;;;;;;;;;;5013304;28;20454;-52
2022/03/26 09:07:22;;;;;;;44.40;31.30;;;;;;;;;;5013293;28;20427;-52
2022/03/26 09:09:48;;;;;;;41.10;31.23;;;;;;;;;;5011934;28;20472;-52
2022/03/26 09:12:14;;;;;;;39.33;29.43;;;;;;;;;;4995732;28;20801;-52
2022/03/26 09:14:40;;;;;;;37.77;28.77;;;;;;;;;;5011924;28;20427;-51
2022/03/26 09:17:06;;;;;;;43.10;29.93;;;;;;;;;;4996716;28;20415;-53
2022/03/26 09:19:32;;;;;;;41.70;29.87;;;;;;;;;;5012891;28;20423;-51
2022/03/26 09:21:58;;;;;;;41.30;29.47;;;;;;;;;;5012487;28;20814;-53
2022/03/26 09:24:24;;;;;;;36.47;27.83;;;;;;;;;;5007155;28;20450;-54
2022/03/26 09:26:50;;;;;;;35.73;28.00;;;;;;;;;;4993577;28;20404;-53
2022/03/26 09:29:16;;;;;;;35.93;28.40;;;;;;;;;;5005983;28;20410;-53
2022/03/26 09:31:42;;;;;;;32.37;26.03;;;;;;;;;;5012717;28;20446;-53
2022/03/26 09:34:09;;;;;;;42.03;28.30;;;;;;;;;;5012113;28;20419;-53
2022/03/26 09:36:35;;;;;;;38.73;27.80;;;;;;;;;;5001967;28;20929;-53
2022/03/26 09:39:01;;;;;;;35.33;27.40;;;;;;;;;;4992684;28;20408;-52
2022/03/26 09:41:27;;;;;;;37.27;26.87;;;;;;;;;;5010305;28;20418;-54
2022/03/26 09:43:55;;;;;;;38.23;27.93;;;;;;;;;;5012938;28;20541;-54
2022/03/26 09:46:22;;;;;;;32.17;25.17;;;;;;;;;;5012179;28;20467;-52
2022/03/26 09:48:48;;;;;;;39.77;24.90;;;;;;;;;;5003911;28;20428;-54
2022/03/26 09:51:15;;;;;;;32.80;24.40;;;;;;;;;;5007141;28;20415;-53
2022/03/26 09:53:42;;;;;;;35.07;24.20;;;;;;;;;;4995217;28;20495;-54
2022/03/26 09:56:08;;;;;;;39.00;26.87;;;;;;;;;;5012642;28;20486;-52
2022/03/26 09:58:34;;;;;;;33.70;25.07;;;;;;;;;;4996743;28;20913;-53
2022/03/26 10:01:00;;;;;;;33.57;27.50;;;;;;;;;;5012136;28;20507;-52
2022/03/26 10:03:26;;;;;;;34.33;25.83;;;;;;;;;;5007907;28;20468;-53
2022/03/26 10:06:02;;;;;;;35.40;26.83;;;;;;;;;;5011682;28;20459;-51
2022/03/26 10:08:28;;;;;;;47.60;29.77;;;;;;;;;;5002838;28;20934;-53
2022/03/26 10:10:55;;;;;;;35.83;25.60;;;;;;;;;;5012306;28;20415;-52
2022/03/26 10:13:34;;;;;;;31.70;23.97;;;;;;;;;;5012237;28;20810;-53
2022/03/26 10:16:01;;;;;;;34.43;23.43;;;;;;;;;;5012325;28;20751;-53
2022/03/26 10:18:31;;;;;;;34.10;24.50;;;;;;;;;;4994944;28;20879;-51
2022/03/26 10:20:59;;;;;;;28.97;22.60;;;;;;;;;;5012108;28;20464;-53
2022/03/26 10:23:28;;;;;;;28.60;20.83;;;;;;;;;;5012384;28;20823;-52
2022/03/26 10:26:06;;;;;;;26.30;17.90;;;;;;;;;;4992340;28;20455;-53
2022/03/26 10:28:32;;;;;;;19.27;12.47;;;;;;;;;;4992701;28;20491;-53
2022/03/26 10:34:03;;;;;;;18.53;12.73;;;;;;;;;;4992377;28;20403;-52
2022/03/26 10:36:29;;;;;;;15.77;10.93;;;;;;;;;;4992312;28;20404;-54
2022/03/26 10:38:55;;;;;;;19.27;13.93;;;;;;;;;;4992298;28;20479;-54
2022/03/26 10:41:22;;;;;;;21.67;15.87;;;;;;;;;;4992104;28;20396;-54
2022/03/26 10:43:48;;;;;;;23.30;15.80;;;;;;;;;;4973817;28;20407;-53
2022/03/26 10:46:22;;;;;;;20.57;14.60;;;;;;;;;;4992519;28;20518;-53
2022/03/26 10:49:01;;;;;;;17.83;14.00;;;;;;;;;;5028162;28;20798;-51
2022/03/26 10:51:27;;;;;;;22.03;15.03;;;;;;;;;;5033784;28;20398;-52
2022/03/26 10:53:55;;;;;;;18.87;13.80;;;;;;;;;;5018170;28;20412;-51
2022/03/26 10:56:22;;;;;;;15.37;12.37;;;;;;;;;;5035818;28;20403;-51
2022/03/26 10:58:48;;;;;;;14.63;12.33;;;;;;;;;;5035719;28;20401;-53
2022/03/26 11:01:14;;;;;;;16.37;13.27;;;;;;;;;;5025259;28;20407;-53
2022/03/26 11:03:40;;;;;;;16.90;12.27;;;;;;;;;;5015691;28;20426;-52
2022/03/26 11:06:09;;;;;;;17.60;10.97;;;;;;;;;;5015598;28;20464;-52
2022/03/26 11:08:36;;;;;;;16.83;11.50;;;;;;;;;;5015788;28;20414;-53
2022/03/26 11:11:09;;;;;;;14.37;12.00;;;;;;;;;;5015434;28;20973;-52
2022/03/26 11:13:37;;;;;;;17.10;9.83;;;;;;;;;;5014730;28;20522;-54
2022/03/26 11:16:04;;;;;;;11.20;9.67;;;;;;;;;;5014617;28;20501;-52
2022/03/26 11:18:50;;;;;;;18.60;10.87;;;;;;;;;;5015713;28;20954;-53
2022/03/26 11:21:29;;;;;;;15.43;9.40;;;;;;;;;;5015253;28;20445;-53
2022/03/26 11:24:04;;;;;;;11.00;8.70;;;;;;;;;;5015310;28;20411;-52
2022/03/26 11:26:48;;;;;;;9.80;8.60;;;;;;;;;;5015392;28;20394;-54
2022/03/26 11:29:14;;;;;;;12.03;9.30;;;;;;;;;;5015156;28;20949;-54
2022/03/26 11:31:55;;;;;;;9.93;8.37;;;;;;;;;;5014151;28;20423;-50
2022/03/26 11:34:21;;;;;;;9.80;7.70;;;;;;;;;;5015253;28;20179;-53
2022/03/26 11:36:50;;;;;;;11.10;8.70;;;;;;;;;;5013299;28;20459;-53
2022/03/26 11:39:17;;;;;;;9.13;8.07;;;;;;;;;;5001689;28;20973;-54
2022/03/26 11:41:44;;;;;;;10.20;8.40;;;;;;;;;;4999644;28;20510;-54
2022/03/26 11:44:11;;;;;;;10.73;7.97;;;;;;;;;;4999088;28;20450;-52
2022/03/26 11:52:14;;;;;;;13.13;8.83;;;;;;;;;;5012149;28;20418;-52
2022/03/26 11:54:40;;;;;;;12.47;7.87;;;;;;;;;;4995370;28;20408;-54
2022/03/26 11:57:08;;;;;;;8.23;7.10;;;;;;;;;;5001240;28;20426;-54
2022/03/26 11:59:37;;;;;;;10.17;7.80;;;;;;;;;;4998236;28;20434;-52
2022/03/26 12:02:16;;;;;;;13.83;9.40;;;;;;;;;;5012104;28;20442;-53
2022/03/26 12:04:49;;;;;;;9.73;8.73;;;;;;;;;;5012894;28;20458;-52
2022/03/26 12:07:15;;;;;;;12.03;9.73;;;;;;;;;;5014551;28;20415;-54
2022/03/26 12:09:41;;;;;;;10.80;8.23;;;;;;;;;;5004888;28;20419;-54
2022/03/26 12:12:10;;;;;;;16.93;10.63;;;;;;;;;;5014593;28;20431;-53
2022/03/26 12:14:56;;;;;;;13.80;9.90;;;;;;;;;;5014945;28;20423;-54
2022/03/26 12:17:45;;;;;;;13.70;10.00;;;;;;;;;;5014874;28;20423;-53
2022/03/26 12:20:32;;;;;;;15.00;10.80;;;;;;;;;;4994386;28;20420;-52
2022/03/26 12:23:11;;;;;;;13.20;9.80;;;;;;;;;;4994656;28;20499;-53
2022/03/26 12:25:38;;;;;;;14.10;10.40;;;;;;;;;;5001588;28;20462;-53
2022/03/26 12:28:05;;;;;;;13.57;11.23;;;;;;;;;;4999083;28;20871;-54
2022/03/26 12:30:31;;;;;;;13.93;10.63;;;;;;;;;;5006661;28;20919;-52
2022/03/26 12:32:59;;;;;;;14.73;11.17;;;;;;;;;;5014499;28;20793;-53
2022/03/26 12:35:26;;;;;;;13.43;10.73;;;;;;;;;;5000990;28;20475;-53
2022/03/26 12:37:52;;;;;;;13.47;11.80;;;;;;;;;;4994263;28;20452;-51
2022/03/26 12:40:19;;;;;;;13.10;11.70;;;;;;;;;;5003706;28;20448;-53
2022/03/26 12:42:45;;;;;;;14.80;12.20;;;;;;;;;;5005758;28;20961;-52
2022/03/26 12:45:15;;;;;;;11.97;10.63;;;;;;;;;;4994448;28;20529;-54
2022/03/26 12:47:45;;;;;;;13.60;12.00;;;;;;;;;;5000856;28;20502;-54
2022/03/26 12:50:11;;;;;;;13.33;12.03;;;;;;;;;;5013614;28;20395;-54
2022/03/26 12:52:37;;;;;;;16.13;12.57;;;;;;;;;;5013467;28;20426;-53
2022/03/26 12:55:03;;;;;;;20.60;11.67;;;;;;;;;;5013691;28;20395;-54
2022/03/26 12:58:56;;;;;;;10.60;9.50;;;;;;;;;;5013580;28;20411;-53
2022/03/26 13:00:22;;;;;;;10.90;9.80;;;;;;;;;;5002167;28;20994;-54
2022/03/26 13:02:59;;;;;;;10.20;8.87;;;;;;;;;;4993587;28;20448;-52
2022/03/26 13:05:25;;;;;;;9.93;8.93;;;;;;;;;;4976637;28;20853;-51
2022/03/26 13:07:52;;;;;;;9.93;9.00;;;;;;;;;;5006257;28;20407;-52
2022/03/26 13:10:28;;;;;;;11.10;9.50;;;;;;;;;;5013376;28;20411;-53
2022/03/26 13:12:54;;;;;;;10.90;9.80;;;;;;;;;;5012590;28;20426;-53
2022/03/26 13:15:20;;;;;;;12.23;9.40;;;;;;;;;;5013271;28;20403;-52
2022/03/26 13:17:47;;;;;;;10.90;9.53;;;;;;;;;;5013449;28;20403;-52
2022/03/26 13:20:23;;;;;;;15.40;9.93;;;;;;;;;;5013083;28;20408;-53
2022/03/26 13:22:53;;;;;;;9.57;8.23;;;;;;;;;;5013142;28;20462;-54
2022/03/26 13:25:19;;;;;;;12.53;9.80;;;;;;;;;;5011591;28;20458;-53
2022/03/26 13:27:45;;;;;;;12.63;8.50;;;;;;;;;;5010366;28;20407;-54
2022/03/26 13:30:12;;;;;;;11.13;9.63;;;;;;;;;;5007339;28;20407;-54
2022/03/26 13:32:41;;;;;;;9.60;8.43;;;;;;;;;;4993351;28;20428;-53
2022/03/26 13:35:08;;;;;;;14.87;9.47;;;;;;;;;;5012471;28;20419;-54
2022/03/26 13:37:34;;;;;;;10.33;8.67;;;;;;;;;;5021625;28;20422;-54
2022/03/26 13:40:01;;;;;;;10.53;9.43;;;;;;;;;;5011424;28;20962;-54
2022/03/26 13:42:27;;;;;;;11.50;8.70;;;;;;;;;;5012218;28;20426;-53
2022/03/26 13:44:54;;;;;;;8.70;7.80;;;;;;;;;;5012725;28;20463;-52
2022/03/26 13:47:21;;;;;;;13.80;9.70;;;;;;;;;;5012719;28;20415;-54
2022/03/26 13:50:00;;;;;;;16.07;11.10;;;;;;;;;;5003603;28;20419;-53
2022/03/26 13:52:26;;;;;;;14.90;9.80;;;;;;;;;;5011953;28;20426;-53
2022/03/26 13:54:52;;;;;;;11.20;10.10;;;;;;;;;;5006493;28;20514;-52
2022/03/26 13:57:28;;;;;;;11.20;10.10;;;;;;;;;;5011535;28;20419;-52
2022/03/26 13:59:54;;;;;;;13.17;9.80;;;;;;;;;;5009243;28;20450;-52
2022/03/26 14:02:25;;;;;;;13.10;10.10;;;;;;;;;;4997439;28;20478;-54
2022/03/26 14:04:51;;;;;;;12.97;10.30;;;;;;;;;;5005899;28;20455;-53
2022/03/26 14:07:17;;;;;;;12.17;9.70;;;;;;;;;;5000146;28;20419;-52
2022/03/26 14:09:51;;;;;;;11.50;10.30;;;;;;;;;;5010116;28;20509;-51
2022/03/26 14:12:17;;;;;;;11.47;9.53;;;;;;;;;;5011854;28;20473;-49
2022/03/26 14:14:43;;;;;;;10.63;7.40;;;;;;;;;;4993942;28;20423;-49
2022/03/26 14:17:09;;;;;;;9.77;8.77;;;;;;;;;;5011827;28;20434;-51
2022/03/26 14:19:35;;;;;;;9.77;7.60;;;;;;;;;;5006888;28;20465;-53
2022/03/26 14:22:01;;;;;;;10.13;9.03;;;;;;;;;;4994601;28;20436;-53
2022/03/26 14:24:27;;;;;;;10.27;9.20;;;;;;;;;;4996872;28;20979;-52
2022/03/26 14:26:56;;;;;;;9.83;8.83;;;;;;;;;;5011817;28;20411;-53
2022/03/26 14:29:22;;;;;;;9.80;8.50;;;;;;;;;;5011927;28;20406;-51
2022/03/26 14:31:48;;;;;;;10.03;9.03;;;;;;;;;;5012123;28;20514;-51
2022/03/26 14:34:14;;;;;;;9.37;8.43;;;;;;;;;;5008962;28;20513;-51